createdAt,value
2017-11-15T00:00:57.103Z,77.20
2017-11-15T00:03:26.350Z,78.60
2017-11-15T00:05:54.505Z,78.50
2017-11-15T00:08:22.684Z,77.80
2017-11-15T00:10:50.844Z,75.10
2017-11-15T00:13:19.863Z,73.90
2017-11-15T00:15:48.005Z,73.90
2017-11-15T00:18:16.979Z,75.40
2017-11-15T00:20:45.144Z,75.40
2017-11-15T00:23:13.376Z,75.90
2017-11-15T00:25:41.536Z,76.70
2017-11-15T00:28:09.708Z,76.20
2017-11-15T00:30:37.874Z,76.10
2017-11-15T00:33:10.895Z,76.70
2017-11-15T00:35:39.046Z,76.60
2017-11-15T00:38:07.336Z,77.50
2017-11-15T00:40:35.478Z,77.70
2017-11-15T00:43:04.489Z,78.90
2017-11-15T00:45:32.937Z,78.80
2017-11-15T00:48:01.547Z,79.50
2017-11-15T00:50:30.719Z,79.40
2017-11-15T00:52:58.891Z,79.50
2017-11-15T00:55:27.059Z,80.20
2017-11-15T00:57:55.217Z,79.70
2017-11-15T01:00:24.244Z,78.70
2017-11-15T01:02:52.420Z,78.20
2017-11-15T01:05:21.356Z,77.50
2017-11-15T01:07:49.521Z,77.50
2017-11-15T01:10:17.711Z,79.50
2017-11-15T01:12:45.883Z,79.00
2017-11-15T01:15:14.043Z,78.00
2017-11-15T01:17:43.202Z,80.20
2017-11-15T01:20:11.810Z,80.30
2017-11-15T01:22:39.971Z,78.80
2017-11-15T01:25:10.422Z,78.50
2017-11-15T01:27:39.488Z,78.70
2017-11-15T01:30:08.230Z,78.50
2017-11-15T01:32:36.396Z,78.90
2017-11-15T01:35:04.551Z,79.40
2017-11-15T01:37:33.107Z,78.80
2017-11-15T01:40:01.263Z,80.00
2017-11-15T01:42:29.434Z,79.40
2017-11-15T01:45:01.483Z,77.90
2017-11-15T01:47:29.657Z,75.90
2017-11-15T01:50:05.999Z,77.40
2017-11-15T01:52:34.174Z,76.10
2017-11-15T01:55:02.356Z,76.90
2017-11-15T01:57:30.556Z,79.10
2017-11-15T01:59:58.732Z,77.50
2017-11-15T02:02:26.907Z,76.60
2017-11-15T02:04:55.658Z,78.70
2017-11-15T02:07:23.826Z,79.70
2017-11-15T02:09:51.974Z,79.00
2017-11-15T02:12:20.140Z,80.30
2017-11-15T02:14:50.370Z,80.90
2017-11-15T02:17:18.520Z,82.30
2017-11-15T02:19:46.674Z,84.80
2017-11-15T02:22:14.827Z,84.90
2017-11-15T02:24:43.083Z,83.80
2017-11-15T02:27:11.255Z,80.60
2017-11-15T02:29:39.411Z,80.70
2017-11-15T02:32:07.864Z,81.70
2017-11-15T02:34:36.035Z,78.70
2017-11-15T02:37:04.214Z,77.30
2017-11-15T02:39:32.390Z,78.30
2017-11-15T02:42:00.557Z,78.50
2017-11-15T02:44:28.732Z,80.40
2017-11-15T02:46:56.902Z,80.60
2017-11-15T02:49:25.091Z,81.70
2017-11-15T02:51:53.247Z,81.70
2017-11-15T02:54:22.396Z,81.60
2017-11-15T02:56:50.567Z,82.50
2017-11-15T02:59:18.734Z,80.70
2017-11-15T03:01:46.904Z,80.10
2017-11-15T03:04:16.653Z,80.80
2017-11-15T03:06:44.823Z,80.80
2017-11-15T03:09:12.996Z,81.10
2017-11-15T03:11:41.150Z,81.80
2017-11-15T03:14:09.439Z,80.70
2017-11-15T03:16:38.421Z,80.70
2017-11-15T03:19:07.908Z,81.00
2017-11-15T03:21:36.834Z,80.60
2017-11-15T03:24:06.018Z,80.50
2017-11-15T03:26:34.619Z,78.30
2017-11-15T03:29:02.853Z,77.80
2017-11-15T03:31:31.003Z,78.20
2017-11-15T03:33:59.397Z,78.20
2017-11-15T03:36:27.921Z,77.30
2017-11-15T03:38:56.077Z,77.90
2017-11-15T03:41:24.248Z,76.40
2017-11-15T03:43:52.430Z,80.10
2017-11-15T03:46:20.617Z,77.80
2017-11-15T03:48:48.768Z,78.60
2017-11-15T03:51:16.919Z,78.50
2017-11-15T03:53:45.506Z,76.30
2017-11-15T03:56:13.674Z,77.00
2017-11-15T03:58:43.682Z,80.70
2017-11-15T04:01:11.852Z,80.60
2017-11-15T04:03:47.116Z,81.70
2017-11-15T04:06:15.268Z,81.70
2017-11-15T04:08:43.443Z,82.70
2017-11-15T04:11:13.228Z,84.10
2017-11-15T04:13:41.393Z,83.40
2017-11-15T04:16:09.615Z,82.80
2017-11-15T04:18:37.779Z,82.40
2017-11-15T04:21:05.961Z,81.60
2017-11-15T04:23:34.162Z,81.10
2017-11-15T04:26:03.111Z,78.80
2017-11-15T04:28:31.291Z,78.70
2017-11-15T04:30:59.472Z,80.60
2017-11-15T04:33:28.684Z,79.40
2017-11-15T04:35:57.816Z,80.40
2017-11-15T04:38:25.972Z,80.30
2017-11-15T04:40:54.160Z,79.00
2017-11-15T04:43:22.473Z,79.60
2017-11-15T04:45:50.648Z,79.50
2017-11-15T04:48:19.054Z,79.10
2017-11-15T04:50:47.229Z,78.70
2017-11-15T04:53:15.447Z,78.40
2017-11-15T04:55:47.562Z,78.30
2017-11-15T04:58:16.600Z,78.90
2017-11-15T05:00:44.833Z,79.10
2017-11-15T05:03:13.063Z,77.90
2017-11-15T05:05:41.238Z,76.80
2017-11-15T05:08:10.953Z,77.10
2017-11-15T05:10:40.042Z,77.10
2017-11-15T05:13:08.209Z,76.90
2017-11-15T05:15:36.376Z,78.50
2017-11-15T05:18:04.766Z,79.30
2017-11-15T05:20:32.934Z,77.60
2017-11-15T05:23:07.323Z,76.40
2017-11-15T05:25:35.531Z,76.60
2017-11-15T05:28:04.667Z,78.80
2017-11-15T05:30:32.827Z,78.80
2017-11-15T05:33:05.266Z,79.10
2017-11-15T05:35:33.436Z,80.40
2017-11-15T05:38:01.674Z,79.70
2017-11-15T05:40:29.873Z,76.30
2017-11-15T05:42:58.191Z,76.60
2017-11-15T05:45:26.363Z,78.40
2017-11-15T05:47:54.519Z,79.20
2017-11-15T05:50:22.737Z,79.00
2017-11-15T05:52:50.898Z,78.90
2017-11-15T05:55:19.051Z,78.10
2017-11-15T05:57:48.149Z,75.50
2017-11-15T06:00:19.841Z,73.80
2017-11-15T06:02:48.931Z,73.70
2017-11-15T06:05:17.433Z,73.10
2017-11-15T06:07:46.467Z,74.60
2017-11-15T06:10:14.718Z,74.60
2017-11-15T06:12:42.932Z,74.60
2017-11-15T06:15:11.610Z,75.90
2017-11-15T06:17:39.874Z,75.10
2017-11-15T06:20:09.917Z,75.20
2017-11-15T06:22:38.142Z,74.60
2017-11-15T06:25:07.744Z,74.60
2017-11-15T06:27:35.892Z,75.70
2017-11-15T06:30:04.143Z,75.10
2017-11-15T06:32:33.329Z,77.70
2017-11-15T06:35:01.332Z,77.60
2017-11-15T06:37:29.521Z,74.70
2017-11-15T06:39:57.699Z,75.70
2017-11-15T06:42:25.869Z,74.60
2017-11-15T06:44:54.397Z,75.10
2017-11-15T06:47:23.203Z,74.90
2017-11-15T06:49:51.422Z,73.60
2017-11-15T06:52:19.610Z,72.40
2017-11-15T06:54:47.820Z,72.80
2017-11-15T06:57:15.997Z,70.50
2017-11-15T06:59:44.970Z,71.00
2017-11-15T07:02:14.731Z,70.80
2017-11-15T07:04:42.987Z,72.20
2017-11-15T07:07:11.168Z,72.00
2017-11-15T07:09:39.338Z,74.70
2017-11-15T07:12:07.511Z,73.80
2017-11-15T07:14:36.073Z,73.30
2017-11-15T07:17:05.121Z,74.70
2017-11-15T07:19:33.980Z,76.20
2017-11-15T07:22:02.154Z,75.60
2017-11-15T07:24:30.457Z,74.30
2017-11-15T07:26:58.611Z,72.30
2017-11-15T07:29:26.799Z,71.20
2017-11-15T07:31:54.965Z,71.00
2017-11-15T07:34:27.275Z,71.40
2017-11-15T07:36:55.506Z,70.40
2017-11-15T07:39:23.707Z,70.00
2017-11-15T07:41:51.893Z,70.40
2017-11-15T07:44:20.122Z,69.70
2017-11-15T07:46:48.304Z,68.10
2017-11-15T07:49:16.473Z,68.20
2017-11-15T07:51:44.645Z,66.40
2017-11-15T07:54:13.639Z,67.20
2017-11-15T07:56:41.792Z,67.30
2017-11-15T07:59:09.961Z,67.30
2017-11-15T08:01:38.133Z,68.30
2017-11-15T08:04:07.144Z,68.60
2017-11-15T08:06:35.693Z,68.70
2017-11-15T08:09:03.840Z,67.90
2017-11-15T08:11:32.023Z,69.10
2017-11-15T08:14:00.403Z,69.60
2017-11-15T08:16:28.577Z,69.30
2017-11-15T08:18:56.739Z,70.30
2017-11-15T08:21:25.069Z,72.10
2017-11-15T08:23:53.613Z,72.80
2017-11-15T08:26:21.788Z,69.80
2017-11-15T08:28:50.534Z,68.20
2017-11-15T08:31:18.708Z,69.50
2017-11-15T08:33:46.874Z,69.50
2017-11-15T08:36:15.036Z,70.40
2017-11-15T08:38:43.196Z,70.10
2017-11-15T08:41:11.354Z,70.80
2017-11-15T08:43:40.382Z,72.70
2017-11-15T08:46:09.291Z,72.20
2017-11-15T08:48:37.455Z,71.80
2017-11-15T08:51:05.617Z,72.20
2017-11-15T08:53:40.732Z,71.80
2017-11-15T08:56:10.179Z,70.40
2017-11-15T08:58:38.458Z,70.40
2017-11-15T09:01:06.632Z,68.70
2017-11-15T09:03:35.579Z,68.10
2017-11-15T09:06:04.415Z,65.30
2017-11-15T09:08:32.624Z,66.50
2017-11-15T09:11:00.800Z,64.70
2017-11-15T09:13:29.948Z,67.00
2017-11-15T09:15:58.109Z,67.20
2017-11-15T09:18:26.317Z,67.10
2017-11-15T09:20:54.476Z,67.70
2017-11-15T09:23:23.673Z,67.40
2017-11-15T09:25:51.846Z,68.10
2017-11-15T09:28:20.052Z,67.30
2017-11-15T09:30:50.156Z,68.10
2017-11-15T09:33:22.122Z,67.30
2017-11-15T09:35:50.293Z,67.00
2017-11-15T09:38:18.447Z,67.10
2017-11-15T09:40:47.233Z,66.90
2017-11-15T09:43:15.411Z,70.70
2017-11-15T09:45:43.822Z,72.90
2017-11-15T09:48:12.019Z,74.90
2017-11-15T09:50:41.372Z,74.20
2017-11-15T09:53:09.572Z,72.80
2017-11-15T09:55:38.924Z,73.10
2017-11-15T09:58:07.087Z,72.40
2017-11-15T10:00:35.309Z,71.20
2017-11-15T10:03:03.474Z,68.10
2017-11-15T10:05:31.718Z,72.10
2017-11-15T10:07:59.900Z,72.80
2017-11-15T10:10:28.092Z,69.90
2017-11-15T10:12:56.401Z,68.80
2017-11-15T10:15:24.575Z,67.20
2017-11-15T10:17:52.752Z,67.90
2017-11-15T10:20:20.985Z,68.60
2017-11-15T10:22:49.149Z,67.90
2017-11-15T10:25:17.327Z,67.30
2017-11-15T10:27:46.515Z,68.50
2017-11-15T10:30:14.693Z,69.20
2017-11-15T10:32:48.248Z,68.00
2017-11-15T10:35:16.420Z,67.70
2017-11-15T10:37:44.576Z,68.80
2017-11-15T10:40:13.140Z,69.30
2017-11-15T10:42:42.217Z,67.30
2017-11-15T10:45:10.381Z,66.90
2017-11-15T10:47:38.568Z,64.20
2017-11-15T10:50:06.962Z,66.80
2017-11-15T10:52:36.573Z,66.70
2017-11-15T10:55:05.116Z,69.30
2017-11-15T10:57:34.074Z,68.10
2017-11-15T11:00:02.285Z,68.00
2017-11-15T11:02:31.607Z,68.30
2017-11-15T11:04:59.775Z,68.30
2017-11-15T11:07:28.999Z,68.10
2017-11-15T11:09:57.214Z,68.10
2017-11-15T11:12:25.354Z,68.50
2017-11-15T11:14:54.574Z,66.80
2017-11-15T11:17:23.715Z,65.40
2017-11-15T11:19:52.738Z,66.40
2017-11-15T11:22:20.898Z,66.50
2017-11-15T11:24:49.063Z,65.90
2017-11-15T11:27:17.232Z,67.50
2017-11-15T11:29:45.394Z,67.20
2017-11-15T11:32:14.703Z,68.10
2017-11-15T11:34:43.033Z,67.40
2017-11-15T11:37:11.186Z,66.60
2017-11-15T11:39:39.392Z,64.80
2017-11-15T11:42:07.603Z,65.70
2017-11-15T11:44:39.998Z,64.90
2017-11-15T11:47:09.935Z,64.90
2017-11-15T11:49:38.178Z,66.20
2017-11-15T11:52:06.805Z,67.30
2017-11-15T11:54:38.727Z,67.20
2017-11-15T11:57:06.929Z,67.20
2017-11-15T11:59:35.198Z,66.20
2017-11-15T12:02:03.352Z,66.30
2017-11-15T12:04:31.731Z,67.00
2017-11-15T12:06:59.922Z,67.80
2017-11-15T12:09:29.169Z,67.10
2017-11-15T12:11:58.058Z,66.70
2017-11-15T12:14:26.284Z,67.00
2017-11-15T12:16:54.475Z,66.80
2017-11-15T12:25:28.520Z,66.00
2017-11-15T12:27:57.381Z,65.90
2017-11-15T12:30:26.545Z,65.70
2017-11-15T12:32:54.711Z,66.10
2017-11-15T12:35:22.874Z,64.30
2017-11-15T12:37:51.122Z,63.70
2017-11-15T12:40:21.125Z,63.60
2017-11-15T12:42:49.399Z,63.30
2017-11-15T12:45:17.981Z,62.30
2017-11-15T12:47:46.520Z,61.60
2017-11-15T12:50:14.876Z,61.80
2017-11-15T12:52:43.557Z,61.70
2017-11-15T12:55:11.921Z,62.90
2017-11-15T12:57:41.080Z,62.10
2017-11-15T13:00:10.468Z,61.80
2017-11-15T13:02:38.781Z,60.40
2017-11-15T13:05:07.557Z,60.00
2017-11-15T13:07:35.847Z,58.80
2017-11-15T13:10:04.845Z,59.30
2017-11-15T13:12:35.053Z,58.10
2017-11-15T13:15:03.384Z,58.10
2017-11-15T13:17:31.748Z,59.00
2017-11-15T13:20:01.195Z,59.50
2017-11-15T13:22:29.972Z,58.30
2017-11-15T13:25:00.554Z,54.20
2017-11-15T13:27:32.340Z,54.10
2017-11-15T13:30:02.804Z,56.20
2017-11-15T13:32:35.429Z,55.60
2017-11-15T13:35:05.517Z,53.10
2017-11-15T13:37:34.370Z,51.80
2017-11-15T13:40:02.739Z,50.70
2017-11-15T13:42:41.203Z,49.20
2017-11-15T13:45:09.369Z,51.00
2017-11-15T13:47:38.349Z,48.60
2017-11-15T13:50:06.879Z,48.60
2017-11-15T13:52:35.176Z,46.60
2017-11-15T13:55:03.396Z,48.80
2017-11-15T13:57:31.578Z,48.70
2017-11-15T14:00:00.529Z,47.90
2017-11-15T14:02:28.783Z,47.90
2017-11-15T14:04:56.972Z,46.00
2017-11-15T14:07:25.143Z,47.90
2017-11-15T14:09:53.309Z,46.50
2017-11-15T14:12:21.465Z,45.50
2017-11-15T14:14:50.707Z,45.20
2017-11-15T14:17:21.349Z,43.80
2017-11-15T14:19:49.577Z,42.00
2017-11-15T14:22:17.759Z,42.50
2017-11-15T14:24:46.010Z,43.40
2017-11-15T14:27:15.024Z,42.40
2017-11-15T14:29:46.564Z,42.40
2017-11-15T14:32:15.572Z,43.50
2017-11-15T14:34:43.993Z,44.50
2017-11-15T14:37:12.309Z,45.30
2017-11-15T14:39:40.529Z,46.60
2017-11-15T14:42:08.853Z,46.50
2017-11-15T14:44:37.301Z,47.60
2017-11-15T14:47:07.107Z,47.30
2017-11-15T14:49:35.371Z,50.50
2017-11-15T14:52:04.387Z,47.90
2017-11-15T14:54:32.792Z,49.50
2017-11-15T14:57:01.714Z,48.90
2017-11-15T14:59:29.975Z,48.70
2017-11-15T15:01:58.268Z,49.90
2017-11-15T15:04:27.233Z,50.80
2017-11-15T15:06:55.465Z,50.80
2017-11-15T15:09:23.699Z,52.30
2017-11-15T15:11:51.866Z,52.30
2017-11-15T15:14:20.452Z,53.00
2017-11-15T15:16:48.681Z,54.90
2017-11-15T15:19:18.735Z,57.00
2017-11-15T15:21:47.380Z,60.00
2017-11-15T15:24:17.584Z,61.70
2017-11-15T15:26:45.795Z,62.00
2017-11-15T15:29:13.971Z,63.10
2017-11-15T15:31:42.498Z,63.00
2017-11-15T15:34:11.659Z,65.10
2017-11-15T15:36:40.142Z,66.60
2017-11-15T15:39:09.085Z,68.40
2017-11-15T15:41:37.242Z,68.40
2017-11-15T15:44:07.523Z,68.60
2017-11-15T15:46:36.713Z,69.90
2017-11-15T15:49:04.893Z,70.90
2017-11-15T15:51:33.781Z,73.80
2017-11-15T15:54:01.980Z,74.60
2017-11-15T15:58:59.586Z,75.20
2017-11-15T16:01:27.748Z,74.60
2017-11-15T16:04:00.344Z,74.10
2017-11-15T16:06:28.533Z,74.00
2017-11-15T16:08:57.394Z,74.70
2017-11-15T16:11:25.750Z,75.00
2017-11-15T16:13:59.958Z,74.80
2017-11-15T16:16:42.208Z,76.60
2017-11-15T16:19:10.465Z,75.80
2017-11-15T16:21:38.643Z,76.40
2017-11-15T16:24:06.914Z,75.60
2017-11-15T16:26:35.988Z,78.50
2017-11-15T16:29:05.407Z,76.00
2017-11-15T16:31:34.335Z,78.10
2017-11-15T16:34:02.516Z,77.00
2017-11-15T16:36:30.834Z,77.60
2017-11-15T16:38:59.059Z,78.00
2017-11-15T16:41:29.216Z,80.40
2017-11-15T16:43:57.510Z,81.00
2017-11-15T16:46:26.594Z,78.50
2017-11-15T16:48:56.528Z,81.60
2017-11-15T16:51:25.761Z,81.30
2017-11-15T16:53:54.023Z,81.30
2017-11-15T16:56:23.047Z,78.50
2017-11-15T16:58:52.829Z,77.20
2017-11-15T17:01:21.087Z,77.70
2017-11-15T17:03:59.717Z,80.90
2017-11-15T17:06:28.321Z,79.30
2017-11-15T17:08:56.577Z,81.00
2017-11-15T17:11:24.791Z,80.40
2017-11-15T17:13:53.761Z,82.00
2017-11-15T17:16:22.919Z,82.10
2017-11-15T17:18:51.109Z,81.40
2017-11-15T17:21:19.317Z,81.30
2017-11-15T17:23:53.886Z,81.50
2017-11-15T17:26:42.170Z,79.70
2017-11-15T17:29:10.323Z,75.80
2017-11-15T17:31:39.528Z,76.80
2017-11-15T17:34:13.753Z,78.20
2017-11-15T17:36:42.869Z,79.70
2017-11-15T17:39:11.110Z,80.90
2017-11-15T17:41:39.327Z,81.20
2017-11-15T17:44:08.484Z,82.50
2017-11-15T17:46:36.906Z,83.40
2017-11-15T17:49:05.394Z,82.90
2017-11-15T17:51:33.552Z,83.60
2017-11-15T17:54:01.812Z,82.10
2017-11-15T17:56:30.930Z,81.60
2017-11-15T17:58:59.117Z,81.20
2017-11-15T18:01:27.396Z,81.30
2017-11-15T18:07:02.482Z,77.30
2017-11-15T18:15:33.643Z,80.00
2017-11-15T18:18:14.144Z,80.90
2017-11-15T18:20:43.241Z,80.90
2017-11-15T18:23:28.776Z,80.90
2017-11-15T18:28:52.909Z,80.50
2017-11-15T18:31:21.278Z,75.70
2017-11-15T18:36:56.388Z,76.20
2017-11-15T18:39:24.986Z,76.80
2017-11-15T18:41:54.457Z,79.20
2017-11-15T18:44:31.381Z,79.90
2017-11-15T18:47:01.772Z,79.50
2017-11-15T18:49:31.148Z,81.10
2017-11-15T18:51:59.599Z,81.10
2017-11-15T18:54:29.892Z,80.20
2017-11-15T18:56:59.167Z,74.60
2017-11-15T18:59:27.746Z,74.50
2017-11-15T19:01:57.029Z,76.10
2017-11-15T19:04:34.164Z,76.10
2017-11-15T19:07:02.767Z,77.80
2017-11-15T19:09:31.699Z,79.20
2017-11-15T19:12:00.188Z,79.90
2017-11-15T19:14:32.391Z,79.70
2017-11-15T19:17:01.188Z,78.90
2017-11-15T19:19:29.940Z,79.70
2017-11-15T19:21:58.749Z,78.80
2017-11-15T19:24:41.090Z,78.80
2017-11-15T19:27:09.732Z,78.60
2017-11-15T19:29:38.208Z,76.10
2017-11-15T19:32:07.597Z,75.80
2017-11-15T19:34:36.211Z,75.70
2017-11-15T19:37:04.700Z,75.90
2017-11-15T19:39:33.199Z,77.70
2017-11-15T19:42:01.679Z,79.00
2017-11-15T19:44:30.371Z,77.40
2017-11-15T19:46:58.859Z,76.90
2017-11-15T19:49:27.400Z,76.20
2017-11-15T19:51:56.219Z,77.90
2017-11-15T19:54:28.736Z,77.60
2017-11-15T19:56:58.081Z,78.00
2017-11-15T19:59:27.640Z,79.30
2017-11-15T20:01:56.225Z,80.00
2017-11-15T20:04:30.193Z,80.00
2017-11-15T20:06:58.728Z,80.50
2017-11-15T20:09:30.927Z,76.80
2017-11-15T20:12:00.758Z,77.50
2017-11-15T20:14:30.261Z,77.00
2017-11-15T20:16:58.756Z,78.50
2017-11-15T20:19:27.230Z,79.00
2017-11-15T20:21:55.742Z,80.30
2017-11-15T20:24:29.072Z,80.40
2017-11-15T20:26:57.462Z,78.40
2017-11-15T20:29:26.549Z,78.10
2017-11-15T20:31:54.950Z,77.50
2017-11-15T20:34:24.872Z,77.30
2017-11-15T20:36:53.890Z,77.50
2017-11-15T20:39:22.087Z,77.40
2017-11-15T20:41:50.342Z,77.70
2017-11-15T20:44:19.369Z,78.00
2017-11-15T20:46:47.585Z,78.00
2017-11-15T20:49:15.764Z,78.40
2017-11-15T20:51:43.939Z,74.90
2017-11-15T20:54:13.074Z,75.60
2017-11-15T20:56:41.247Z,76.80
2017-11-15T20:59:09.418Z,77.00
2017-11-15T21:01:37.596Z,76.90
2017-11-15T21:04:06.803Z,77.70
2017-11-15T21:06:34.967Z,77.90
2017-11-15T21:09:03.403Z,77.90
2017-11-15T21:11:31.558Z,78.50
2017-11-15T21:14:00.068Z,78.80
2017-11-15T21:16:28.227Z,79.80
2017-11-15T21:18:56.395Z,78.90
2017-11-15T21:21:24.595Z,78.90
2017-11-15T21:23:52.820Z,77.50
2017-11-15T21:26:22.482Z,75.60
2017-11-15T21:28:50.716Z,75.50
2017-11-15T21:31:18.873Z,76.20
2017-11-15T21:33:47.134Z,75.40
2017-11-15T21:36:15.295Z,75.50
2017-11-15T21:38:43.458Z,76.60
2017-11-15T21:41:11.631Z,78.50
2017-11-15T21:43:39.844Z,79.30
2017-11-15T21:46:08.010Z,79.90
2017-11-15T21:48:36.198Z,80.50
2017-11-15T21:51:04.739Z,80.30
2017-11-15T21:53:44.947Z,75.50
2017-11-15T21:56:13.119Z,75.40
2017-11-15T21:58:43.221Z,75.50
2017-11-15T22:01:11.420Z,76.40
2017-11-15T22:03:40.615Z,77.70
2017-11-15T22:06:08.787Z,79.00
2017-11-15T22:08:36.967Z,79.00
2017-11-15T22:11:05.148Z,80.70
2017-11-15T22:13:35.129Z,80.90
2017-11-15T22:16:03.320Z,80.40
2017-11-15T22:18:31.812Z,80.00
2017-11-15T22:21:00.345Z,79.80
2017-11-15T22:23:29.008Z,78.90
2017-11-15T22:25:57.176Z,75.20
2017-11-15T22:28:26.019Z,75.10
2017-11-15T22:30:54.189Z,77.00
2017-11-15T22:33:22.361Z,77.90
2017-11-15T22:35:50.532Z,79.70
2017-11-15T22:38:18.783Z,79.10
2017-11-15T22:40:47.714Z,78.80
2017-11-15T22:43:17.359Z,78.20
2017-11-15T22:45:45.546Z,78.20
2017-11-15T22:48:13.727Z,78.30
2017-11-15T22:50:41.887Z,77.70
2017-11-15T22:53:11.070Z,77.80
2017-11-15T22:55:39.243Z,77.90
2017-11-15T22:58:07.398Z,76.90
2017-11-15T23:00:35.572Z,75.80
2017-11-15T23:03:04.495Z,74.40
2017-11-15T23:05:32.727Z,74.40
2017-11-15T23:08:01.019Z,74.80
2017-11-15T23:10:32.434Z,75.00
2017-11-15T23:13:00.707Z,74.90
2017-11-15T23:15:29.071Z,75.30
2017-11-15T23:17:57.238Z,75.80
2017-11-15T23:20:25.396Z,74.80
2017-11-15T23:22:53.585Z,75.60
2017-11-15T23:25:21.758Z,75.00
2017-11-15T23:27:49.923Z,76.00
2017-11-15T23:30:18.174Z,75.80
2017-11-15T23:32:46.335Z,76.40
2017-11-15T23:35:14.523Z,76.40
2017-11-15T23:37:43.078Z,76.30
2017-11-15T23:40:11.946Z,75.60
2017-11-15T23:42:40.874Z,76.30
2017-11-15T23:45:09.056Z,76.20
2017-11-15T23:47:37.249Z,78.00
2017-11-15T23:50:05.399Z,76.90
2017-11-15T23:52:33.591Z,77.20
2017-11-15T23:55:03.895Z,75.90
2017-11-15T23:57:32.070Z,74.70
